createdAt,value
2022-12-26T00:00:13.104Z,76.89
2022-12-26T00:01:13.256Z,76.99
2022-12-26T00:02:13.408Z,76.89
2022-12-26T00:03:13.735Z,77.40
2022-12-26T00:04:52.412Z,76.99
2022-12-26T00:05:14.947Z,76.48
2022-12-26T00:06:14.144Z,76.28
2022-12-26T00:07:14.310Z,76.38
2022-12-26T00:08:14.456Z,76.79
2022-12-26T00:09:14.646Z,76.68
2022-12-26T00:10:14.806Z,76.28
2022-12-26T00:11:14.965Z,76.59
2022-12-26T00:12:15.144Z,76.79
2022-12-26T00:13:39.425Z,76.68
2022-12-26T00:14:16.485Z,77.09
2022-12-26T00:15:15.637Z,76.89
2022-12-26T00:16:15.832Z,76.38
2022-12-26T00:17:15.974Z,76.68
2022-12-26T00:18:16.133Z,76.99
2022-12-26T00:19:16.349Z,76.79
2022-12-26T00:20:16.456Z,77.20
2022-12-26T00:21:16.631Z,76.38
2022-12-26T00:22:16.777Z,77.60
2022-12-26T00:23:16.947Z,77.70
2022-12-26T00:24:17.105Z,76.79
2022-12-26T00:25:17.272Z,77.09
2022-12-26T00:26:17.435Z,76.99
2022-12-26T00:27:17.606Z,76.59
2022-12-26T00:28:17.797Z,77.20
2022-12-26T00:29:17.966Z,77.70
2022-12-26T00:30:18.115Z,76.79
2022-12-26T00:31:18.335Z,76.68
2022-12-26T00:32:18.450Z,76.38
2022-12-26T00:33:18.625Z,76.79
2022-12-26T00:34:18.796Z,77.09
2022-12-26T00:35:18.955Z,77.09
2022-12-26T00:36:19.118Z,77.29
2022-12-26T00:37:19.272Z,76.79
2022-12-26T00:38:19.446Z,77.29
2022-12-26T00:39:19.626Z,76.48
2022-12-26T00:40:19.772Z,76.79
2022-12-26T00:41:19.938Z,76.68
2022-12-26T00:42:20.096Z,77.09
2022-12-26T00:43:20.296Z,77.20
2022-12-26T00:44:20.443Z,76.86
2022-12-26T00:45:20.614Z,77.47
2022-12-26T00:46:20.791Z,77.16
2022-12-26T00:47:20.952Z,76.86
2022-12-26T00:48:21.122Z,76.34
2022-12-26T00:49:21.295Z,76.45
2022-12-26T00:50:21.475Z,76.95
2022-12-26T00:51:21.641Z,77.06
2022-12-26T00:52:21.815Z,76.95
2022-12-26T00:53:21.998Z,77.16
2022-12-26T00:54:22.148Z,76.65
2022-12-26T00:55:22.316Z,76.65
2022-12-26T00:56:22.477Z,76.75
2022-12-26T00:57:22.636Z,76.75
2022-12-26T00:58:22.807Z,76.55
2022-12-26T00:59:22.965Z,76.95
2022-12-26T01:00:23.129Z,76.95
2022-12-26T01:01:23.558Z,76.95
2022-12-26T01:02:23.637Z,76.75
2022-12-26T01:03:23.758Z,76.65
2022-12-26T01:04:23.827Z,76.75
2022-12-26T01:05:23.987Z,77.26
2022-12-26T01:06:24.145Z,76.65
2022-12-26T01:07:24.322Z,76.21
2022-12-26T01:08:25.014Z,76.34
2022-12-26T01:09:24.650Z,76.45
2022-12-26T01:10:24.792Z,76.75
2022-12-26T01:11:24.955Z,77.12
2022-12-26T01:12:25.127Z,76.41
2022-12-26T01:13:25.323Z,76.41
2022-12-26T01:14:25.465Z,76.10
2022-12-26T01:15:25.628Z,76.51
2022-12-26T01:16:25.808Z,76.82
2022-12-26T01:17:25.944Z,76.31
2022-12-26T01:18:26.116Z,76.10
2022-12-26T01:19:26.276Z,76.14
2022-12-26T01:20:26.436Z,76.01
2022-12-26T01:21:26.646Z,76.04
2022-12-26T01:22:26.785Z,76.55
2022-12-26T01:23:26.962Z,76.34
2022-12-26T01:24:27.124Z,76.14
2022-12-26T01:25:27.288Z,75.84
2022-12-26T01:26:27.463Z,76.34
2022-12-26T01:27:27.605Z,76.34
2022-12-26T01:28:27.785Z,76.04
2022-12-26T01:29:27.983Z,76.04
2022-12-26T01:30:28.122Z,76.65
2022-12-26T01:31:28.359Z,76.14
2022-12-26T01:32:28.485Z,76.25
2022-12-26T01:33:28.644Z,76.25
2022-12-26T01:34:28.816Z,76.34
2022-12-26T01:35:28.977Z,76.95
2022-12-26T01:36:29.146Z,75.94
2022-12-26T01:37:29.311Z,76.95
2022-12-26T01:38:29.482Z,77.06
2022-12-26T01:39:29.721Z,76.75
2022-12-26T01:40:29.822Z,76.04
2022-12-26T01:41:29.985Z,76.14
2022-12-26T01:42:30.144Z,76.65
2022-12-26T01:43:30.324Z,76.65
2022-12-26T01:44:30.493Z,76.79
2022-12-26T01:45:30.694Z,75.98
2022-12-26T01:46:30.866Z,76.48
2022-12-26T01:47:31.035Z,76.18
2022-12-26T01:48:31.207Z,76.38
2022-12-26T01:49:31.376Z,77.50
2022-12-26T01:50:31.540Z,76.89
2022-12-26T01:51:31.704Z,76.79
2022-12-26T01:52:31.865Z,76.68
2022-12-26T01:53:32.048Z,76.48
2022-12-26T01:54:40.049Z,76.28
2022-12-26T01:55:33.429Z,76.59
2022-12-26T01:56:32.584Z,76.59
2022-12-26T01:57:32.750Z,76.99
2022-12-26T01:58:32.945Z,76.79
2022-12-26T01:59:33.094Z,76.79
2022-12-26T02:00:33.254Z,76.89
2022-12-26T02:01:33.548Z,76.79
2022-12-26T02:02:33.666Z,76.38
2022-12-26T02:03:33.765Z,76.79
2022-12-26T02:04:33.927Z,76.48
2022-12-26T02:05:34.081Z,76.95
2022-12-26T02:06:34.256Z,76.45
2022-12-26T02:07:34.436Z,76.45
2022-12-26T02:08:34.642Z,76.34
2022-12-26T02:09:34.743Z,76.34
2022-12-26T02:10:34.904Z,76.65
2022-12-26T02:11:35.074Z,76.95
2022-12-26T02:12:38.893Z,76.25
2022-12-26T02:13:35.434Z,76.45
2022-12-26T02:14:39.468Z,76.55
2022-12-26T02:15:35.782Z,76.95
2022-12-26T02:16:36.025Z,76.45
2022-12-26T02:17:36.125Z,75.63
2022-12-26T02:18:36.315Z,75.94
2022-12-26T02:19:36.465Z,75.63
2022-12-26T02:20:36.664Z,75.53
2022-12-26T02:21:36.825Z,75.53
2022-12-26T02:22:37.009Z,75.53
2022-12-26T02:23:37.175Z,75.84
2022-12-26T02:24:37.376Z,76.01
2022-12-26T02:25:37.524Z,76.31
2022-12-26T02:26:37.715Z,76.01
2022-12-26T02:27:37.873Z,74.79
2022-12-26T02:28:38.045Z,75.90
2022-12-26T02:29:38.208Z,75.60
2022-12-26T02:30:38.385Z,76.01
2022-12-26T02:31:38.561Z,75.19
2022-12-26T02:32:38.717Z,75.80
2022-12-26T02:33:38.873Z,75.80
2022-12-26T02:34:39.051Z,75.40
2022-12-26T02:35:39.205Z,76.01
2022-12-26T02:36:39.407Z,74.88
2022-12-26T02:37:39.553Z,75.40
2022-12-26T02:38:39.722Z,75.60
2022-12-26T02:39:44.030Z,75.29
2022-12-26T02:40:41.042Z,75.60
2022-12-26T02:41:40.225Z,76.21
2022-12-26T02:42:40.386Z,74.48
2022-12-26T02:43:40.543Z,74.58
2022-12-26T02:44:40.736Z,75.40
2022-12-26T02:45:40.932Z,76.01
2022-12-26T02:46:41.063Z,75.19
2022-12-26T02:47:41.215Z,75.80
2022-12-26T02:48:41.412Z,75.19
2022-12-26T02:49:41.553Z,74.68
2022-12-26T02:50:41.724Z,75.90
2022-12-26T02:51:41.872Z,75.29
2022-12-26T02:52:42.073Z,74.99
2022-12-26T02:53:42.262Z,75.19
2022-12-26T02:54:42.424Z,74.79
2022-12-26T02:55:42.583Z,75.19
2022-12-26T02:56:42.754Z,74.99
2022-12-26T02:57:42.914Z,74.75
2022-12-26T02:58:43.073Z,74.75
2022-12-26T02:59:55.001Z,74.95
2022-12-26T03:00:44.480Z,74.34
2022-12-26T03:01:43.833Z,74.55
2022-12-26T03:02:43.902Z,74.68
2022-12-26T03:03:43.944Z,75.16
2022-12-26T03:04:44.228Z,75.05
2022-12-26T03:05:44.307Z,74.79
2022-12-26T03:06:44.455Z,74.68
2022-12-26T03:07:44.615Z,74.68
2022-12-26T03:08:44.785Z,74.99
2022-12-26T03:09:44.961Z,75.19
2022-12-26T03:10:45.122Z,75.46
2022-12-26T03:11:45.273Z,75.36
2022-12-26T03:12:45.444Z,75.76
2022-12-26T03:13:45.609Z,74.65
2022-12-26T03:14:45.813Z,75.46
2022-12-26T03:15:45.973Z,73.94
2022-12-26T03:16:46.191Z,75.16
2022-12-26T03:17:46.304Z,74.44
2022-12-26T03:18:57.848Z,74.04
2022-12-26T03:19:47.668Z,74.38
2022-12-26T03:20:46.813Z,73.94
2022-12-26T03:21:46.974Z,75.16
2022-12-26T03:22:47.132Z,74.58
2022-12-26T03:23:47.283Z,74.65
2022-12-26T03:24:47.464Z,74.04
2022-12-26T03:25:47.624Z,74.79
2022-12-26T03:26:47.780Z,74.58
2022-12-26T03:27:47.944Z,74.58
2022-12-26T03:28:48.164Z,74.68
2022-12-26T03:29:48.334Z,74.68
2022-12-26T03:30:48.545Z,74.38
2022-12-26T03:31:48.654Z,74.68
2022-12-26T03:32:48.813Z,74.48
2022-12-26T03:33:48.990Z,74.48
2022-12-26T03:34:49.160Z,74.79
2022-12-26T03:35:49.320Z,75.19
2022-12-26T03:36:49.485Z,75.19
2022-12-26T03:37:50.482Z,74.99
2022-12-26T03:38:49.835Z,75.09
2022-12-26T03:39:50.019Z,74.48
2022-12-26T03:40:50.174Z,75.09
2022-12-26T03:41:50.336Z,75.40
2022-12-26T03:42:50.505Z,75.29
2022-12-26T03:43:50.664Z,74.79
2022-12-26T03:44:53.911Z,74.99
2022-12-26T03:45:51.024Z,74.99
2022-12-26T03:46:51.177Z,75.19
2022-12-26T03:47:51.323Z,74.68
2022-12-26T03:48:51.510Z,74.79
2022-12-26T03:49:51.662Z,74.68
2022-12-26T03:50:51.868Z,74.68
2022-12-26T03:51:52.020Z,74.99
2022-12-26T03:52:52.173Z,75.60
2022-12-26T03:53:52.333Z,75.05
2022-12-26T03:54:52.504Z,74.28
2022-12-26T03:55:52.678Z,74.18
2022-12-26T03:56:52.836Z,74.58
2022-12-26T03:57:52.984Z,74.48
2022-12-26T03:58:53.148Z,74.38
2022-12-26T03:59:53.404Z,74.38
2022-12-26T04:00:53.476Z,74.48
2022-12-26T04:01:53.720Z,74.48
2022-12-26T04:02:53.824Z,74.79
2022-12-26T04:03:54.046Z,74.79
2022-12-26T04:04:54.173Z,74.48
2022-12-26T04:05:54.333Z,74.48
2022-12-26T04:06:54.535Z,75.40
2022-12-26T04:07:56.782Z,75.70
2022-12-26T04:08:54.873Z,75.70
2022-12-26T04:09:55.039Z,75.90
2022-12-26T04:10:55.192Z,75.49
2022-12-26T04:11:55.359Z,75.29
2022-12-26T04:12:55.521Z,74.99
2022-12-26T04:13:55.673Z,74.88
2022-12-26T04:14:55.859Z,74.38
2022-12-26T04:15:56.058Z,75.29
2022-12-26T04:16:56.193Z,74.79
2022-12-26T04:17:56.360Z,74.88
2022-12-26T04:18:56.533Z,75.09
2022-12-26T04:19:56.713Z,75.09
2022-12-26T04:20:56.882Z,74.99
2022-12-26T04:21:57.042Z,74.48
2022-12-26T04:22:57.211Z,74.88
2022-12-26T04:23:57.363Z,75.09
2022-12-26T04:24:57.543Z,74.99
2022-12-26T04:25:57.703Z,75.09
2022-12-26T04:26:57.878Z,75.09
2022-12-26T04:27:58.024Z,74.58
2022-12-26T04:28:58.224Z,75.19
2022-12-26T04:29:58.402Z,74.68
2022-12-26T04:30:58.582Z,75.70
2022-12-26T04:31:58.745Z,75.29
2022-12-26T04:32:58.922Z,75.09
2022-12-26T04:33:59.063Z,74.68
2022-12-26T04:34:59.255Z,74.38
2022-12-26T04:35:59.414Z,74.28
2022-12-26T04:36:59.579Z,74.68
2022-12-26T04:37:59.733Z,74.99
2022-12-26T04:38:59.934Z,75.49
2022-12-26T04:40:00.246Z,74.18
2022-12-26T04:41:00.271Z,74.58
2022-12-26T04:42:00.444Z,75.19
2022-12-26T04:43:00.603Z,74.99
2022-12-26T04:44:00.764Z,74.58
2022-12-26T04:45:00.943Z,75.29
2022-12-26T04:46:01.150Z,75.49
2022-12-26T04:47:01.278Z,74.99
2022-12-26T04:48:01.431Z,75.60
2022-12-26T04:49:01.620Z,75.90
2022-12-26T04:50:01.802Z,75.90
2022-12-26T04:51:01.971Z,74.28
2022-12-26T04:52:02.126Z,74.68
2022-12-26T04:53:02.290Z,74.88
2022-12-26T04:54:02.477Z,75.19
2022-12-26T04:55:02.653Z,76.10
2022-12-26T04:56:02.834Z,75.49
2022-12-26T04:57:02.971Z,74.68
2022-12-26T04:58:03.126Z,75.49
2022-12-26T04:59:03.326Z,74.88
2022-12-26T05:00:03.491Z,74.99
2022-12-26T05:01:03.728Z,74.99
2022-12-26T05:02:03.880Z,75.19
2022-12-26T05:03:04.040Z,74.79
2022-12-26T05:04:04.240Z,74.18
2022-12-26T05:05:04.372Z,74.99
2022-12-26T05:06:04.520Z,74.79
2022-12-26T05:07:04.686Z,74.88
2022-12-26T05:08:04.863Z,74.99
2022-12-26T05:09:05.033Z,74.79
2022-12-26T05:10:05.342Z,75.05
2022-12-26T05:11:05.362Z,75.46
2022-12-26T05:12:05.529Z,74.34
2022-12-26T05:13:05.709Z,74.24
2022-12-26T05:14:05.859Z,73.83
2022-12-26T05:15:06.039Z,75.16
2022-12-26T05:16:06.253Z,75.36
2022-12-26T05:17:06.377Z,74.85
2022-12-26T05:18:06.542Z,74.95
2022-12-26T05:19:06.696Z,75.05
2022-12-26T05:20:06.912Z,75.16
2022-12-26T05:21:07.061Z,75.67
2022-12-26T05:22:07.226Z,74.75
2022-12-26T05:23:07.378Z,74.34
2022-12-26T05:24:07.534Z,75.67
2022-12-26T05:25:07.709Z,74.34
2022-12-26T05:26:07.858Z,74.75
2022-12-26T05:27:08.042Z,73.94
2022-12-26T05:28:08.210Z,74.44
2022-12-26T05:29:08.381Z,74.34
2022-12-26T05:30:08.560Z,74.85
2022-12-26T05:31:08.784Z,74.95
2022-12-26T05:32:08.900Z,74.85
2022-12-26T05:33:09.069Z,74.95
2022-12-26T05:34:09.220Z,74.24
2022-12-26T05:35:09.406Z,75.56
2022-12-26T05:36:09.563Z,73.83
2022-12-26T05:37:09.750Z,74.75
2022-12-26T05:38:09.911Z,74.65
2022-12-26T05:39:10.082Z,74.14
2022-12-26T05:40:10.255Z,74.04
2022-12-26T05:41:10.409Z,74.75
2022-12-26T05:42:10.572Z,74.85
2022-12-26T05:43:10.744Z,74.75
2022-12-26T05:44:10.922Z,74.75
2022-12-26T05:45:11.090Z,74.14
2022-12-26T05:46:11.301Z,74.95
2022-12-26T05:47:11.427Z,74.44
2022-12-26T05:48:11.583Z,74.04
2022-12-26T05:49:11.775Z,74.24
2022-12-26T05:50:11.900Z,73.94
2022-12-26T05:51:12.071Z,73.63
2022-12-26T05:52:12.231Z,74.14
2022-12-26T05:53:12.390Z,74.14
2022-12-26T05:54:12.570Z,74.55
2022-12-26T05:55:12.751Z,74.85
2022-12-26T05:56:12.923Z,74.55
2022-12-26T05:57:13.075Z,74.48
2022-12-26T05:58:13.238Z,74.58
2022-12-26T05:59:13.392Z,74.28
2022-12-26T06:00:13.570Z,74.58
2022-12-26T06:01:13.778Z,75.09
2022-12-26T06:02:14.031Z,74.88
2022-12-26T06:03:14.247Z,74.58
2022-12-26T06:04:14.241Z,75.09
2022-12-26T06:05:14.423Z,75.09
2022-12-26T06:06:14.580Z,75.49
2022-12-26T06:07:14.743Z,75.70
2022-12-26T06:08:14.898Z,74.88
2022-12-26T06:09:15.110Z,75.29
2022-12-26T06:10:15.269Z,74.68
2022-12-26T06:11:15.431Z,74.88
2022-12-26T06:12:15.598Z,74.79
2022-12-26T06:13:15.751Z,74.88
2022-12-26T06:14:15.937Z,74.88
2022-12-26T06:15:16.109Z,74.65
2022-12-26T06:16:16.386Z,74.75
2022-12-26T06:17:16.461Z,74.24
2022-12-26T06:18:16.625Z,74.75
2022-12-26T06:19:16.778Z,75.36
2022-12-26T06:20:16.964Z,74.85
2022-12-26T06:21:17.111Z,74.55
2022-12-26T06:22:17.312Z,75.26
2022-12-26T06:23:17.472Z,74.65
2022-12-26T06:24:17.630Z,74.75
2022-12-26T06:25:17.800Z,74.34
2022-12-26T06:26:17.973Z,74.14
2022-12-26T06:27:18.128Z,74.31
2022-12-26T06:28:18.295Z,74.55
2022-12-26T06:29:18.451Z,73.63
2022-12-26T06:30:18.635Z,74.21
2022-12-26T06:31:18.831Z,74.34
2022-12-26T06:32:18.983Z,74.04
2022-12-26T06:33:19.132Z,75.32
2022-12-26T06:34:19.350Z,75.22
2022-12-26T06:35:19.522Z,74.82
2022-12-26T06:36:19.659Z,75.36
2022-12-26T06:37:19.830Z,74.75
2022-12-26T06:38:19.987Z,74.65
2022-12-26T06:39:20.172Z,74.95
2022-12-26T06:40:20.332Z,73.43
2022-12-26T06:41:20.488Z,74.44
2022-12-26T06:42:20.654Z,74.75
2022-12-26T06:43:20.812Z,75.26
2022-12-26T06:44:20.979Z,75.87
2022-12-26T06:45:21.143Z,75.05
2022-12-26T06:46:21.365Z,75.76
2022-12-26T06:47:21.476Z,75.36
2022-12-26T06:48:21.652Z,74.24
2022-12-26T06:49:23.184Z,74.55
2022-12-26T06:50:21.997Z,74.44
2022-12-26T06:51:22.140Z,74.14
2022-12-26T06:52:22.312Z,73.94
2022-12-26T06:53:22.469Z,73.94
2022-12-26T06:54:22.698Z,74.34
2022-12-26T06:55:22.843Z,74.75
2022-12-26T06:56:23.035Z,75.26
2022-12-26T06:57:23.201Z,74.44
2022-12-26T06:58:23.380Z,74.34
2022-12-26T06:59:23.582Z,75.16
2022-12-26T07:00:23.761Z,74.85
2022-12-26T07:01:24.087Z,74.34
2022-12-26T07:02:24.217Z,74.14
2022-12-26T07:03:24.260Z,75.05
2022-12-26T07:04:24.440Z,74.95
2022-12-26T07:05:24.641Z,75.32
2022-12-26T07:06:24.858Z,75.12
2022-12-26T07:07:24.972Z,74.71
2022-12-26T07:08:25.151Z,74.21
2022-12-26T07:09:31.486Z,75.12
2022-12-26T07:10:26.516Z,74.31
2022-12-26T07:11:25.676Z,74.21
2022-12-26T07:12:25.873Z,75.12
2022-12-26T07:13:26.049Z,74.10
2022-12-26T07:14:26.230Z,74.51
2022-12-26T07:15:26.406Z,75.12
2022-12-26T07:16:26.618Z,73.70
2022-12-26T07:17:26.705Z,74.41
2022-12-26T07:18:26.885Z,74.10
2022-12-26T07:19:27.057Z,74.10
2022-12-26T07:20:27.259Z,73.90
2022-12-26T07:21:27.430Z,74.41
2022-12-26T07:22:27.613Z,74.92
2022-12-26T07:23:27.789Z,74.01
2022-12-26T07:24:27.973Z,73.19
2022-12-26T07:25:28.171Z,74.01
2022-12-26T07:26:28.346Z,75.43
2022-12-26T07:27:28.503Z,75.63
2022-12-26T07:28:28.692Z,73.60
2022-12-26T07:29:28.850Z,73.60
2022-12-26T07:30:29.072Z,72.48
2022-12-26T07:31:29.361Z,72.78
2022-12-26T07:32:29.398Z,73.60
2022-12-26T07:33:29.539Z,72.89
2022-12-26T07:34:31.823Z,73.66
2022-12-26T07:35:29.877Z,72.75
2022-12-26T07:36:30.070Z,73.46
2022-12-26T07:37:30.251Z,74.78
2022-12-26T07:38:30.445Z,73.87
2022-12-26T07:39:30.641Z,72.34
2022-12-26T07:40:30.789Z,72.96
2022-12-26T07:41:30.999Z,73.77
2022-12-26T07:42:31.161Z,73.16
2022-12-26T07:43:31.350Z,73.57
2022-12-26T07:44:31.600Z,73.57
2022-12-26T07:45:31.749Z,72.75
2022-12-26T07:46:31.976Z,72.96
2022-12-26T07:47:32.018Z,74.38
2022-12-26T07:48:32.199Z,72.65
2022-12-26T07:49:32.354Z,72.45
2022-12-26T07:50:32.551Z,72.45
2022-12-26T07:51:32.699Z,73.46
2022-12-26T07:52:32.887Z,73.87
2022-12-26T07:53:33.040Z,73.66
2022-12-26T07:54:33.238Z,72.45
2022-12-26T07:55:33.396Z,73.87
2022-12-26T07:56:33.572Z,72.85
2022-12-26T07:57:49.745Z,72.45
2022-12-26T07:58:34.909Z,72.85
2022-12-26T07:59:34.103Z,73.87
2022-12-26T08:00:34.317Z,73.26
2022-12-26T08:01:34.529Z,72.04
2022-12-26T08:02:34.887Z,74.17
2022-12-26T08:03:34.847Z,73.77
2022-12-26T08:04:34.964Z,73.46
2022-12-26T08:05:35.116Z,72.85
2022-12-26T08:06:35.288Z,72.75
2022-12-26T08:07:35.442Z,73.87
2022-12-26T08:08:35.630Z,74.58
2022-12-26T08:09:35.819Z,73.16
2022-12-26T08:10:36.029Z,73.06
2022-12-26T08:11:36.178Z,73.06
2022-12-26T08:12:36.377Z,73.77
2022-12-26T08:13:36.528Z,73.06
2022-12-26T08:14:36.716Z,72.85
2022-12-26T08:15:36.880Z,73.87
2022-12-26T08:16:37.101Z,73.57
2022-12-26T08:17:37.211Z,74.58
2022-12-26T08:18:37.381Z,73.36
2022-12-26T08:19:37.565Z,73.87
2022-12-26T08:20:37.772Z,72.85
2022-12-26T08:21:37.920Z,72.65
2022-12-26T08:22:38.091Z,73.16
2022-12-26T08:23:38.274Z,73.77
2022-12-26T08:24:38.448Z,72.85
2022-12-26T08:25:38.635Z,73.26
2022-12-26T08:26:38.792Z,73.87
2022-12-26T08:27:38.948Z,73.06
2022-12-26T08:28:39.168Z,73.87
2022-12-26T08:29:39.289Z,72.85
2022-12-26T08:30:39.506Z,72.25
2022-12-26T08:31:39.629Z,73.16
2022-12-26T08:32:42.491Z,73.66
2022-12-26T08:33:40.004Z,73.16
2022-12-26T08:34:40.180Z,73.06
2022-12-26T08:35:40.381Z,72.25
2022-12-26T08:36:40.516Z,73.57
2022-12-26T08:37:40.678Z,74.27
2022-12-26T08:38:40.882Z,73.66
2022-12-26T08:39:41.021Z,73.66
2022-12-26T08:40:43.956Z,72.85
2022-12-26T08:41:41.448Z,72.85
2022-12-26T08:42:56.164Z,72.96
2022-12-26T08:44:25.209Z,73.26
2022-12-26T08:44:42.879Z,74.07
2022-12-26T08:45:42.095Z,73.26
2022-12-26T08:46:42.229Z,73.36
2022-12-26T08:47:42.412Z,73.26
2022-12-26T08:48:42.601Z,73.16
2022-12-26T08:49:42.774Z,73.16
2022-12-26T08:50:42.969Z,73.46
2022-12-26T08:51:43.120Z,73.46
2022-12-26T08:52:43.303Z,73.36
2022-12-26T08:53:43.496Z,73.77
2022-12-26T08:54:43.661Z,74.58
2022-12-26T08:55:43.871Z,73.46
2022-12-26T08:56:44.009Z,73.66
2022-12-26T08:57:44.190Z,73.57
2022-12-26T08:58:44.409Z,73.26
2022-12-26T08:59:44.556Z,73.97
2022-12-26T09:00:44.729Z,73.97
2022-12-26T09:01:44.986Z,73.46
2022-12-26T09:02:45.285Z,73.66
2022-12-26T09:03:45.282Z,73.57
2022-12-26T09:04:45.475Z,73.66
2022-12-26T09:05:45.660Z,73.16
2022-12-26T09:06:45.814Z,73.26
2022-12-26T09:07:45.998Z,73.06
2022-12-26T09:08:46.179Z,74.48
2022-12-26T09:09:46.360Z,73.22
2022-12-26T09:10:46.559Z,73.06
2022-12-26T09:11:46.697Z,73.63
2022-12-26T09:12:46.896Z,73.43
2022-12-26T09:13:47.077Z,73.22
2022-12-26T09:14:50.051Z,73.22
2022-12-26T09:15:47.440Z,73.63
2022-12-26T09:16:50.331Z,73.43
2022-12-26T09:17:47.767Z,72.92
2022-12-26T09:18:47.961Z,73.53
2022-12-26T09:19:48.140Z,74.44
2022-12-26T09:20:48.291Z,73.39
2022-12-26T09:21:48.468Z,73.49
2022-12-26T09:22:48.652Z,73.80
2022-12-26T09:23:48.851Z,73.09
2022-12-26T09:24:49.043Z,74.00
2022-12-26T09:25:49.215Z,73.09
2022-12-26T09:26:49.444Z,72.78
2022-12-26T09:27:54.231Z,72.58
2022-12-26T09:28:50.761Z,72.48
2022-12-26T09:29:49.921Z,73.19
2022-12-26T09:30:50.134Z,73.39
2022-12-26T09:31:50.282Z,72.85
2022-12-26T09:32:50.421Z,73.36
2022-12-26T09:33:50.616Z,72.34
2022-12-26T09:34:50.817Z,71.94
2022-12-26T09:35:50.969Z,72.85
2022-12-26T09:36:51.169Z,71.94
2022-12-26T09:37:51.307Z,71.73
2022-12-26T09:38:51.491Z,72.45
2022-12-26T09:39:51.669Z,72.14
2022-12-26T09:40:51.867Z,71.94
2022-12-26T09:41:52.081Z,73.25
2022-12-26T09:42:52.233Z,73.02
2022-12-26T09:43:52.386Z,72.72
2022-12-26T09:44:52.565Z,72.01
2022-12-26T09:45:52.755Z,71.70
2022-12-26T09:46:52.937Z,72.11
2022-12-26T09:47:53.079Z,72.01
2022-12-26T09:48:53.260Z,71.80
2022-12-26T09:49:53.449Z,71.97
2022-12-26T09:50:53.636Z,71.77
2022-12-26T09:51:53.836Z,71.88
2022-12-26T09:52:53.969Z,71.37
2022-12-26T09:53:54.167Z,71.26
2022-12-26T09:54:54.319Z,71.23
2022-12-26T09:55:54.491Z,72.34
2022-12-26T09:57:02.902Z,71.53
2022-12-26T09:57:55.838Z,69.92
2022-12-26T09:58:55.012Z,70.42
2022-12-26T09:59:55.195Z,70.93
2022-12-26T10:00:55.398Z,71.53
2022-12-26T10:01:55.682Z,70.62
2022-12-26T10:02:55.743Z,71.23
2022-12-26T10:03:55.921Z,70.52
2022-12-26T10:04:56.145Z,69.81
2022-12-26T10:05:56.252Z,70.02
2022-12-26T10:06:56.455Z,70.12
2022-12-26T10:07:56.632Z,70.32
2022-12-26T10:08:56.839Z,70.32
2022-12-26T10:09:56.969Z,70.32
2022-12-26T10:10:57.152Z,70.02
2022-12-26T10:11:57.341Z,70.96
2022-12-26T10:12:57.518Z,70.42
2022-12-26T10:13:57.716Z,70.02
2022-12-26T10:14:57.871Z,70.52
2022-12-26T10:15:58.105Z,71.13
2022-12-26T10:16:58.263Z,70.73
2022-12-26T10:17:58.385Z,70.02
2022-12-26T10:18:58.577Z,69.41
2022-12-26T10:19:58.761Z,70.36
2022-12-26T10:20:58.947Z,69.01
2022-12-26T10:21:59.140Z,69.44
2022-12-26T10:22:59.289Z,69.04
2022-12-26T10:23:59.464Z,68.73
2022-12-26T10:24:59.648Z,69.44
2022-12-26T10:25:59.845Z,69.95
2022-12-26T10:27:00.047Z,69.74
2022-12-26T10:28:00.185Z,69.44
2022-12-26T10:29:00.371Z,69.95
2022-12-26T10:30:00.558Z,69.48
2022-12-26T10:31:00.783Z,68.46
2022-12-26T10:32:00.950Z,69.17
2022-12-26T10:33:01.125Z,69.37
2022-12-26T10:34:01.308Z,68.97
2022-12-26T10:35:01.494Z,69.48
2022-12-26T10:36:01.670Z,68.97
2022-12-26T10:37:01.879Z,68.36
2022-12-26T10:38:02.020Z,68.80
2022-12-26T10:39:02.206Z,69.20
2022-12-26T10:40:02.448Z,69.51
2022-12-26T10:41:02.539Z,70.42
2022-12-26T10:42:02.718Z,70.01
2022-12-26T10:43:02.905Z,70.42
2022-12-26T10:44:03.123Z,69.20
2022-12-26T10:45:03.243Z,69.51
2022-12-26T10:46:03.463Z,69.71
2022-12-26T10:47:03.594Z,69.71
2022-12-26T10:48:03.780Z,68.90
2022-12-26T10:49:03.978Z,69.31
2022-12-26T10:50:04.122Z,69.31
2022-12-26T10:51:04.303Z,69.10
2022-12-26T10:52:04.493Z,68.70
2022-12-26T10:53:04.700Z,69.61
2022-12-26T10:54:04.851Z,70.12
2022-12-26T10:55:29.059Z,69.20
2022-12-26T10:56:06.212Z,68.63
2022-12-26T10:57:05.411Z,69.95
2022-12-26T10:58:05.590Z,69.64
2022-12-26T10:59:05.771Z,69.64
2022-12-26T11:00:05.999Z,69.84
2022-12-26T11:01:06.150Z,69.84
2022-12-26T11:02:07.271Z,69.54
2022-12-26T11:03:06.601Z,69.54
2022-12-26T11:04:06.680Z,69.74
2022-12-26T11:05:27.156Z,70.25
2022-12-26T11:06:09.201Z,70.86
2022-12-26T11:07:07.223Z,70.65
2022-12-26T11:08:07.386Z,70.56
2022-12-26T11:09:07.564Z,70.25
2022-12-26T11:10:07.754Z,70.05
2022-12-26T11:11:07.934Z,70.56
2022-12-26T11:12:08.141Z,70.15
2022-12-26T11:13:08.281Z,70.76
2022-12-26T11:14:08.498Z,69.84
2022-12-26T11:15:08.621Z,71.57
2022-12-26T11:16:08.858Z,71.57
2022-12-26T11:17:08.991Z,70.86
2022-12-26T11:18:09.189Z,71.77
2022-12-26T11:19:09.380Z,71.47
2022-12-26T11:20:09.541Z,71.37
2022-12-26T11:21:12.738Z,70.86
2022-12-26T11:22:09.892Z,70.45
2022-12-26T11:23:10.063Z,71.88
2022-12-26T11:24:10.280Z,70.76
2022-12-26T11:25:10.396Z,71.16
2022-12-26T11:26:10.562Z,71.06
2022-12-26T11:27:12.854Z,71.77
2022-12-26T11:28:10.890Z,71.26
2022-12-26T11:29:11.049Z,71.47
2022-12-26T11:30:11.221Z,70.86
2022-12-26T11:31:11.387Z,72.28
2022-12-26T11:32:11.574Z,72.28
2022-12-26T11:33:14.645Z,71.97
2022-12-26T11:34:11.877Z,71.88
2022-12-26T11:35:12.020Z,72.78
2022-12-26T11:36:12.201Z,72.17
2022-12-26T11:37:12.405Z,71.26
2022-12-26T11:38:12.581Z,71.26
2022-12-26T11:39:12.780Z,70.96
2022-12-26T11:40:12.939Z,70.65
2022-12-26T11:41:13.104Z,70.35
2022-12-26T11:42:13.314Z,70.76
2022-12-26T11:43:13.472Z,71.57
2022-12-26T11:44:13.670Z,71.57
2022-12-26T11:45:13.816Z,70.93
2022-12-26T11:46:14.038Z,70.52
2022-12-26T11:47:14.180Z,70.32
2022-12-26T11:48:14.331Z,70.32
2022-12-26T11:49:14.511Z,70.52
2022-12-26T11:50:14.726Z,71.13
2022-12-26T11:51:14.879Z,71.33
2022-12-26T11:52:15.081Z,70.62
2022-12-26T11:53:15.252Z,70.72
2022-12-26T11:54:15.430Z,70.01
2022-12-26T11:55:15.611Z,70.21
2022-12-26T11:56:15.800Z,69.92
2022-12-26T11:57:15.993Z,69.92
2022-12-26T11:58:16.146Z,70.12
2022-12-26T11:59:16.343Z,69.71
2022-12-26T12:00:16.547Z,70.01
2022-12-26T12:01:16.697Z,71.13
2022-12-26T12:02:16.881Z,70.42
2022-12-26T12:03:17.066Z,70.32
2022-12-26T12:04:17.211Z,70.12
2022-12-26T12:05:17.352Z,70.32
2022-12-26T12:06:17.543Z,70.72
2022-12-26T12:07:17.739Z,70.42
2022-12-26T12:08:17.889Z,70.83
2022-12-26T12:09:18.067Z,70.52
2022-12-26T12:10:18.256Z,70.52
2022-12-26T12:11:18.431Z,71.23
2022-12-26T12:12:18.630Z,70.32
2022-12-26T12:13:18.788Z,70.86
2022-12-26T12:14:18.990Z,70.35
2022-12-26T12:15:19.121Z,70.76
2022-12-26T12:16:19.287Z,71.06
2022-12-26T12:17:19.463Z,71.26
2022-12-26T12:18:19.625Z,70.45
2022-12-26T12:19:19.815Z,69.95
2022-12-26T12:20:20.002Z,70.35
2022-12-26T12:21:20.137Z,71.26
2022-12-26T12:22:20.321Z,71.16
2022-12-26T12:23:20.513Z,70.25
2022-12-26T12:24:20.692Z,70.05
2022-12-26T12:25:20.842Z,71.26
2022-12-26T12:26:20.991Z,70.76
2022-12-26T12:27:21.151Z,71.06
2022-12-26T12:28:21.339Z,70.56
2022-12-26T12:29:21.533Z,71.06
2022-12-26T12:30:21.716Z,71.97
2022-12-26T12:31:21.933Z,70.86
2022-12-26T12:32:22.093Z,70.76
2022-12-26T12:33:22.261Z,71.64
2022-12-26T12:34:22.441Z,71.13
2022-12-26T12:35:22.646Z,70.42
2022-12-26T12:36:22.811Z,70.52
2022-12-26T12:37:23.016Z,69.71
2022-12-26T12:38:23.182Z,71.13
2022-12-26T12:39:23.373Z,70.72
2022-12-26T12:40:23.562Z,71.13
2022-12-26T12:41:23.719Z,70.72
2022-12-26T12:42:23.909Z,70.83
2022-12-26T12:43:24.049Z,70.59
2022-12-26T12:44:24.231Z,70.79
2022-12-26T12:45:24.451Z,69.48
2022-12-26T12:46:24.590Z,69.98
2022-12-26T12:47:24.771Z,69.17
2022-12-26T12:48:24.910Z,69.48
2022-12-26T12:49:25.094Z,69.57
2022-12-26T12:50:25.284Z,70.59
2022-12-26T12:51:25.477Z,70.39
2022-12-26T12:52:25.675Z,70.29
2022-12-26T12:53:25.808Z,69.57
2022-12-26T12:54:25.989Z,69.88